Ocean Outback — 9V8072 — position and weather

sailwx.info

Track history (hours):
 
Tides and Currents Weather Stations Pressure Air Temp Water Temp Dewpoint Dewpoint Depression Visibility Wind Speed Wind Dir Waves Ship Positions

Ocean Outback

Last reported at 2016-Oct-28 09:30 UTC. Time now 2016-Dec-06 08:19 UTC.
Position N 01°11' E 103°51'.
Warning: this ship's position is 38 days out of date.

Length 136 m; draft 7.2 m.

Type: Ship. MMSI: 563745000.

Date/timePositionNaut miles runAvg speedWind from/ knotsBaromVisibWave heightAir tempDewpointWater temp
2016-Oct-28 09:30N 01°11' E 103°51'2 2.4
2016-Oct-28 08:33N 01°13' E 103°50'0 0.0
2016-Oct-28 07:29N 01°13' E 103°50'5 0.5
2016-Oct-27 21:27N 01°16' E 103°54'0 0.0
2016-Oct-27 11:30N 01°16' E 103°54'0 0.0
2016-Oct-27 09:12N 01°16' E 103°54'0 0.0
2016-Oct-27 03:30N 01°16' E 103°54'0 0.0
2016-Oct-27 00:24N 01°16' E 103°54'0 0.0
2016-Oct-26 21:24N 01°16' E 103°54'0 0.0
2016-Oct-26 16:21N 01°16' E 103°54'0 0.0
2016-Oct-26 11:30N 01°16' E 103°54'0 0.0
2016-Oct-26 10:30N 01°16' E 103°54'0 0.0
2016-Oct-26 09:30N 01°16' E 103°54'0 0.0
2016-Oct-26 08:12N 01°16' E 103°54'0 0.0
2016-Oct-26 07:24N 01°16' E 103°54'0 0.0
2016-Oct-26 04:33N 01°16' E 103°54'0 0.0
2016-Oct-26 03:33N 01°16' E 103°54'0 0.0
2016-Oct-25 23:33N 01°16' E 103°54'0 0.0
2016-Oct-25 21:30N 01°16' E 103°54'0 0.0
2016-Oct-25 20:24N 01°16' E 103°54'0 0.0
2016-Oct-25 17:21N 01°16' E 103°54'0 0.0
2016-Oct-25 15:18N 01°16' E 103°54'0 0.0
2016-Oct-25 10:12N 01°16' E 103°54'0 0.0
2016-Oct-25 07:21N 01°16' E 103°54'0 0.0
2016-Oct-25 05:33N 01°16' E 103°54'0 0.0
2016-Oct-25 04:21N 01°16' E 103°54'0 0.0
2016-Oct-25 02:30N 01°16' E 103°54'0 0.0
2016-Oct-24 21:30N 01°16' E 103°54'0 0.0
2016-Oct-24 20:30N 01°16' E 103°54'0 0.0
2016-Oct-24 18:33N 01°16' E 103°54'0 0.0
2016-Oct-24 04:33N 01°16' E 103°54'0 0.0
2016-Oct-24 01:33N 01°16' E 103°54'0 0.0
2016-Oct-23 22:24N 01°16' E 103°54'0 0.0
2016-Oct-23 16:18N 01°16' E 103°54'0 0.0
2016-Oct-23 10:33N 01°16' E 103°54'0 0.0
2016-Oct-23 09:33N 01°16' E 103°54'5 2.3
2016-Oct-23 07:33N 01°12' E 103°51'3 1.7
2016-Oct-23 05:33N 01°14' E 103°54'10 5.0
2016-Oct-23 03:26N 01°16' E 104°04'  
Track history (hours):
 
Tides and Currents Weather Stations Pressure Air Temp Water Temp Dewpoint Dewpoint Depression Visibility Wind Speed Wind Dir Waves Ship Positions

Ocean Outback

Last reported at 2016-Oct-28 09:30 UTC. Time now 2016-Dec-06 08:19 UTC.
Position N 01°11' E 103°51'.
Warning: this ship's position is 38 days out of date.

Length 136 m; draft 7.2 m.

Type: Ship. MMSI: 563745000.

Date/timePositionNaut miles runAvg speedWind from/ knotsBaromVisibWave heightAir tempDewpointWater temp
2016-Oct-28 09:30N 01°11' E 103°51'2 2.4
2016-Oct-28 08:33N 01°13' E 103°50'0 0.0
2016-Oct-28 07:29N 01°13' E 103°50'5 0.5
2016-Oct-27 21:27N 01°16' E 103°54'0 0.0
2016-Oct-27 11:30N 01°16' E 103°54'0 0.0
2016-Oct-27 09:12N 01°16' E 103°54'0 0.0
2016-Oct-27 03:30N 01°16' E 103°54'0 0.0
2016-Oct-27 00:24N 01°16' E 103°54'0 0.0
2016-Oct-26 21:24N 01°16' E 103°54'0 0.0
2016-Oct-26 16:21N 01°16' E 103°54'0 0.0
2016-Oct-26 11:30N 01°16' E 103°54'0 0.0
2016-Oct-26 10:30N 01°16' E 103°54'0 0.0
2016-Oct-26 09:30N 01°16' E 103°54'0 0.0
2016-Oct-26 08:12N 01°16' E 103°54'0 0.0
2016-Oct-26 07:24N 01°16' E 103°54'0 0.0
2016-Oct-26 04:33N 01°16' E 103°54'0 0.0
2016-Oct-26 03:33N 01°16' E 103°54'0 0.0
2016-Oct-25 23:33N 01°16' E 103°54'0 0.0
2016-Oct-25 21:30N 01°16' E 103°54'0 0.0
2016-Oct-25 20:24N 01°16' E 103°54'0 0.0
2016-Oct-25 17:21N 01°16' E 103°54'0 0.0
2016-Oct-25 15:18N 01°16' E 103°54'0 0.0
2016-Oct-25 10:12N 01°16' E 103°54'0 0.0
2016-Oct-25 07:21N 01°16' E 103°54'0 0.0
2016-Oct-25 05:33N 01°16' E 103°54'0 0.0
2016-Oct-25 04:21N 01°16' E 103°54'0 0.0
2016-Oct-25 02:30N 01°16' E 103°54'0 0.0
2016-Oct-24 21:30N 01°16' E 103°54'0 0.0
2016-Oct-24 20:30N 01°16' E 103°54'0 0.0
2016-Oct-24 18:33N 01°16' E 103°54'0 0.0
2016-Oct-24 04:33N 01°16' E 103°54'0 0.0
2016-Oct-24 01:33N 01°16' E 103°54'0 0.0
2016-Oct-23 22:24N 01°16' E 103°54'0 0.0
2016-Oct-23 16:18N 01°16' E 103°54'0 0.0
2016-Oct-23 10:33N 01°16' E 103°54'0 0.0
2016-Oct-23 09:33N 01°16' E 103°54'5 2.3
2016-Oct-23 07:33N 01°12' E 103°51'3 1.7
2016-Oct-23 05:33N 01°14' E 103°54'10 5.0
2016-Oct-23 03:26N 01°16' E 104°04'  

Dump ship's entire track history